sensor_id;sensor_type;location;lat;lon;timestamp;temperature;humidity
32502;DHT22;18952;52.516;13.460;2023-04-03T00:00:33;1.10;99.90
32502;DHT22;18952;52.516;13.460;2023-04-03T00:03:00;1.10;99.90
32502;DHT22;18952;52.516;13.460;2023-04-03T00:05:27;1.10;99.90
32502;DHT22;18952;52.516;13.460;2023-04-03T00:07:54;1.10;99.90
32502;DHT22;18952;52.516;13.460;2023-04-03T00:10:20;1.10;99.90
32502;DHT22;18952;52.516;13.460;2023-04-03T00:12:47;1.10;99.90
32502;DHT22;18952;52.516;13.460;2023-04-03T00:15:14;1.10;99.90
32502;DHT22;18952;52.516;13.460;2023-04-03T00:17:41;1.10;99.90
32502;DHT22;18952;52.516;13.460;2023-04-03T00:20:08;1.20;99.90
32502;DHT22;18952;52.516;13.460;2023-04-03T00:22:35;1.20;99.90
32502;DHT22;18952;52.516;13.460;2023-04-03T00:25:02;1.10;99.90
32502;DHT22;18952;52.516;13.460;2023-04-03T00:27:29;1.00;99.90
32502;DHT22;18952;52.516;13.460;2023-04-03T00:29:56;1.00;99.90
32502;DHT22;18952;52.516;13.460;2023-04-03T00:32:23;1.00;99.90
32502;DHT22;18952;52.516;13.460;2023-04-03T00:34:49;1.00;99.90
32502;DHT22;18952;52.516;13.460;2023-04-03T00:37:16;1.00;99.90
32502;DHT22;18952;52.516;13.460;2023-04-03T00:39:43;1.00;99.90
32502;DHT22;18952;52.516;13.460;2023-04-03T00:42:10;1.00;99.90
32502;DHT22;18952;52.516;13.460;2023-04-03T00:47:06;1.00;99.90
32502;DHT22;18952;52.516;13.460;2023-04-03T00:49:33;0.90;99.90
32502;DHT22;18952;52.516;13.460;2023-04-03T00:52:02;0.90;99.90
32502;DHT22;18952;52.516;13.460;2023-04-03T00:54:30;0.90;99.90
32502;DHT22;18952;52.516;13.460;2023-04-03T00:56:58;0.90;99.90
32502;DHT22;18952;52.516;13.460;2023-04-03T00:59:30;0.90;99.90
32502;DHT22;18952;52.516;13.460;2023-04-03T01:02:00;0.80;99.90
32502;DHT22;18952;52.516;13.460;2023-04-03T01:04:39;0.80;99.90
32502;DHT22;18952;52.516;13.460;2023-04-03T01:07:23;0.80;99.90
32502;DHT22;18952;52.516;13.460;2023-04-03T01:09:53;0.80;99.90
32502;DHT22;18952;52.516;13.460;2023-04-03T01:14:52;0.80;99.90
32502;DHT22;18952;52.516;13.460;2023-04-03T01:17:33;0.70;99.90
32502;DHT22;18952;52.516;13.460;2023-04-03T01:20:40;0.70;99.90
32502;DHT22;18952;52.516;13.460;2023-04-03T01:23:26;0.70;99.90
32502;DHT22;18952;52.516;13.460;2023-04-03T01:25:57;0.70;99.90
32502;DHT22;18952;52.516;13.460;2023-04-03T01:28:28;0.70;99.90
32502;DHT22;18952;52.516;13.460;2023-04-03T01:31:22;0.70;99.90
32502;DHT22;18952;52.516;13.460;2023-04-03T01:33:50;0.70;99.90
32502;DHT22;18952;52.516;13.460;2023-04-03T01:36:20;0.70;99.90
32502;DHT22;18952;52.516;13.460;2023-04-03T01:38:48;0.70;99.90
32502;DHT22;18952;52.516;13.460;2023-04-03T01:41:15;0.70;99.90
32502;DHT22;18952;52.516;13.460;2023-04-03T01:43:42;0.60;99.90
32502;DHT22;18952;52.516;13.460;2023-04-03T01:46:09;0.60;99.90
32502;DHT22;18952;52.516;13.460;2023-04-03T01:48:36;0.50;99.90
32502;DHT22;18952;52.516;13.460;2023-04-03T01:51:03;0.50;99.90
32502;DHT22;18952;52.516;13.460;2023-04-03T01:53:32;0.50;99.90
32502;DHT22;18952;52.516;13.460;2023-04-03T01:55:59;0.40;99.90
32502;DHT22;18952;52.516;13.460;2023-04-03T01:58:26;0.40;99.90
32502;DHT22;18952;52.516;13.460;2023-04-03T02:00:53;0.30;99.90
32502;DHT22;18952;52.516;13.460;2023-04-03T02:03:20;0.20;99.90
32502;DHT22;18952;52.516;13.460;2023-04-03T02:05:46;0.10;99.90
32502;DHT22;18952;52.516;13.460;2023-04-03T02:08:13;-0.10;99.90
32502;DHT22;18952;52.516;13.460;2023-04-03T02:10:40;-0.10;99.90
32502;DHT22;18952;52.516;13.460;2023-04-03T02:13:07;-0.20;99.90
32502;DHT22;18952;52.516;13.460;2023-04-03T02:15:34;-0.20;99.90
32502;DHT22;18952;52.516;13.460;2023-04-03T02:18:00;-0.20;99.90
32502;DHT22;18952;52.516;13.460;2023-04-03T02:20:33;-0.20;99.90
32502;DHT22;18952;52.516;13.460;2023-04-03T02:22:59;-0.10;99.90
32502;DHT22;18952;52.516;13.460;2023-04-03T02:25:27;-0.20;99.90
32502;DHT22;18952;52.516;13.460;2023-04-03T02:27:54;-0.20;99.90
32502;DHT22;18952;52.516;13.460;2023-04-03T02:30:20;-0.30;99.90
32502;DHT22;18952;52.516;13.460;2023-04-03T02:32:47;-0.30;99.90
32502;DHT22;18952;52.516;13.460;2023-04-03T02:35:14;-0.30;99.90
32502;DHT22;18952;52.516;13.460;2023-04-03T02:37:41;-0.30;99.90
32502;DHT22;18952;52.516;13.460;2023-04-03T02:40:08;-0.30;99.90
32502;DHT22;18952;52.516;13.460;2023-04-03T02:42:35;-0.30;99.90
32502;DHT22;18952;52.516;13.460;2023-04-03T02:45:02;-0.30;99.90
32502;DHT22;18952;52.516;13.460;2023-04-03T02:47:30;-0.40;99.90
32502;DHT22;18952;52.516;13.460;2023-04-03T02:49:58;-0.50;99.90
32502;DHT22;18952;52.516;13.460;2023-04-03T02:52:26;-0.50;99.90
32502;DHT22;18952;52.516;13.460;2023-04-03T02:54:54;-0.60;99.90
32502;DHT22;18952;52.516;13.460;2023-04-03T02:57:22;-0.60;99.90
32502;DHT22;18952;52.516;13.460;2023-04-03T02:59:48;-0.70;99.90
32502;DHT22;18952;52.516;13.460;2023-04-03T03:02:16;-0.70;99.90
32502;DHT22;18952;52.516;13.460;2023-04-03T03:04:43;-0.70;99.90
32502;DHT22;18952;52.516;13.460;2023-04-03T03:07:12;-0.70;99.90
32502;DHT22;18952;52.516;13.460;2023-04-03T03:09:40;-0.70;99.90
32502;DHT22;18952;52.516;13.460;2023-04-03T03:12:08;-0.80;99.90
32502;DHT22;18952;52.516;13.460;2023-04-03T03:14:34;-0.70;99.90
32502;DHT22;18952;52.516;13.460;2023-04-03T03:17:01;-0.70;99.90
32502;DHT22;18952;52.516;13.460;2023-04-03T03:19:28;-0.80;99.90
32502;DHT22;18952;52.516;13.460;2023-04-03T03:21:54;-0.80;99.90
32502;DHT22;18952;52.516;13.460;2023-04-03T03:24:21;-0.80;99.90
32502;DHT22;18952;52.516;13.460;2023-04-03T03:26:48;-0.90;99.90
32502;DHT22;18952;52.516;13.460;2023-04-03T03:29:15;-0.90;99.90
32502;DHT22;18952;52.516;13.460;2023-04-03T03:31:41;-0.90;99.90
32502;DHT22;18952;52.516;13.460;2023-04-03T03:34:08;-0.90;99.90
32502;DHT22;18952;52.516;13.460;2023-04-03T03:36:35;-0.90;99.90
32502;DHT22;18952;52.516;13.460;2023-04-03T03:39:01;-0.90;99.90
32502;DHT22;18952;52.516;13.460;2023-04-03T03:41:28;-1.00;99.90
32502;DHT22;18952;52.516;13.460;2023-04-03T03:43:55;-0.90;99.90
32502;DHT22;18952;52.516;13.460;2023-04-03T03:46:22;-1.00;99.90
32502;DHT22;18952;52.516;13.460;2023-04-03T03:48:49;-1.00;99.90
32502;DHT22;18952;52.516;13.460;2023-04-03T03:51:15;-1.00;99.90
32502;DHT22;18952;52.516;13.460;2023-04-03T03:53:43;-1.00;99.90
32502;DHT22;18952;52.516;13.460;2023-04-03T03:56:11;-1.00;99.90
32502;DHT22;18952;52.516;13.460;2023-04-03T03:58:39;-1.00;99.90
32502;DHT22;18952;52.516;13.460;2023-04-03T04:01:07;-1.10;99.90
32502;DHT22;18952;52.516;13.460;2023-04-03T04:03:34;-1.10;99.90
32502;DHT22;18952;52.516;13.460;2023-04-03T04:06:02;-1.20;99.90
32502;DHT22;18952;52.516;13.460;2023-04-03T04:08:29;-1.10;99.90
32502;DHT22;18952;52.516;13.460;2023-04-03T04:10:57;-1.10;99.90
32502;DHT22;18952;52.516;13.460;2023-04-03T04:13:27;-1.20;99.90
32502;DHT22;18952;52.516;13.460;2023-04-03T04:15:54;-1.20;99.90
32502;DHT22;18952;52.516;13.460;2023-04-03T04:18:24;-1.20;99.90
32502;DHT22;18952;52.516;13.460;2023-04-03T04:20:52;-1.20;99.90
32502;DHT22;18952;52.516;13.460;2023-04-03T04:23:19;-1.20;99.90
32502;DHT22;18952;52.516;13.460;2023-04-03T04:25:58;-1.20;99.90
32502;DHT22;18952;52.516;13.460;2023-04-03T04:28:27;-1.20;99.90
32502;DHT22;18952;52.516;13.460;2023-04-03T04:30:56;-1.20;99.90
32502;DHT22;18952;52.516;13.460;2023-04-03T04:33:26;-1.20;99.90
32502;DHT22;18952;52.516;13.460;2023-04-03T04:35:57;-1.20;99.90
32502;DHT22;18952;52.516;13.460;2023-04-03T04:38:26;-1.20;99.90
32502;DHT22;18952;52.516;13.460;2023-04-03T04:40:54;-1.20;99.90
32502;DHT22;18952;52.516;13.460;2023-04-03T04:43:25;-1.20;99.90
32502;DHT22;18952;52.516;13.460;2023-04-03T04:46:08;-1.20;99.90
32502;DHT22;18952;52.516;13.460;2023-04-03T04:48:35;-1.20;99.90
32502;DHT22;18952;52.516;13.460;2023-04-03T04:51:02;-1.20;99.90
32502;DHT22;18952;52.516;13.460;2023-04-03T04:53:30;-1.20;99.90
32502;DHT22;18952;52.516;13.460;2023-04-03T04:55:58;-1.20;99.90
32502;DHT22;18952;52.516;13.460;2023-04-03T04:58:29;-1.10;99.90
32502;DHT22;18952;52.516;13.460;2023-04-03T05:01:07;-1.10;99.90
32502;DHT22;18952;52.516;13.460;2023-04-03T05:03:35;-1.00;99.90
32502;DHT22;18952;52.516;13.460;2023-04-03T05:06:02;-0.90;99.90
32502;DHT22;18952;52.516;13.460;2023-04-03T05:08:29;-0.90;99.90
32502;DHT22;18952;52.516;13.460;2023-04-03T05:10:56;-0.90;99.90
32502;DHT22;18952;52.516;13.460;2023-04-03T05:13:23;-0.90;99.90
32502;DHT22;18952;52.516;13.460;2023-04-03T05:15:50;-0.90;99.90
32502;DHT22;18952;52.516;13.460;2023-04-03T05:18:17;-0.90;99.90
32502;DHT22;18952;52.516;13.460;2023-04-03T05:20:43;-0.90;99.90
32502;DHT22;18952;52.516;13.460;2023-04-03T05:23:11;-0.80;99.90
32502;DHT22;18952;52.516;13.460;2023-04-03T05:25:38;-0.80;99.90
32502;DHT22;18952;52.516;13.460;2023-04-03T05:28:06;-0.80;99.90
32502;DHT22;18952;52.516;13.460;2023-04-03T05:30:33;-0.80;99.90
32502;DHT22;18952;52.516;13.460;2023-04-03T05:33:02;-0.80;99.90
32502;DHT22;18952;52.516;13.460;2023-04-03T05:35:30;-0.80;99.90
32502;DHT22;18952;52.516;13.460;2023-04-03T05:38:02;-0.80;99.90
32502;DHT22;18952;52.516;13.460;2023-04-03T05:40:31;-0.80;99.90
32502;DHT22;18952;52.516;13.460;2023-04-03T05:42:59;-0.80;99.90
32502;DHT22;18952;52.516;13.460;2023-04-03T05:45:31;-0.80;99.90
32502;DHT22;18952;52.516;13.460;2023-04-03T05:48:03;-0.70;99.90
32502;DHT22;18952;52.516;13.460;2023-04-03T05:50:30;-0.70;99.90
32502;DHT22;18952;52.516;13.460;2023-04-03T05:52:59;-0.60;99.90
32502;DHT22;18952;52.516;13.460;2023-04-03T05:55:28;-0.50;99.90
32502;DHT22;18952;52.516;13.460;2023-04-03T05:57:56;-0.60;99.90
32502;DHT22;18952;52.516;13.460;2023-04-03T06:00:25;-0.50;99.90
32502;DHT22;18952;52.516;13.460;2023-04-03T06:02:54;-0.50;99.90
32502;DHT22;18952;52.516;13.460;2023-04-03T06:05:22;-0.40;99.90
32502;DHT22;18952;52.516;13.460;2023-04-03T06:07:53;-0.40;99.90
32502;DHT22;18952;52.516;13.460;2023-04-03T06:10:20;-0.40;99.90
32502;DHT22;18952;52.516;13.460;2023-04-03T06:12:47;-0.30;99.90
32502;DHT22;18952;52.516;13.460;2023-04-03T06:15:17;-0.20;99.90
32502;DHT22;18952;52.516;13.460;2023-04-03T06:17:44;-0.20;99.90
32502;DHT22;18952;52.516;13.460;2023-04-03T06:20:12;-0.20;99.90
32502;DHT22;18952;52.516;13.460;2023-04-03T06:22:40;-0.10;99.90
32502;DHT22;18952;52.516;13.460;2023-04-03T06:25:10;0.00;99.90
32502;DHT22;18952;52.516;13.460;2023-04-03T06:27:37;0.10;99.90
32502;DHT22;18952;52.516;13.460;2023-04-03T06:30:05;0.10;99.90
32502;DHT22;18952;52.516;13.460;2023-04-03T06:32:32;0.10;99.90
32502;DHT22;18952;52.516;13.460;2023-04-03T06:34:59;0.30;99.90
32502;DHT22;18952;52.516;13.460;2023-04-03T06:37:26;0.30;99.90
32502;DHT22;18952;52.516;13.460;2023-04-03T06:39:52;0.30;99.90
32502;DHT22;18952;52.516;13.460;2023-04-03T06:42:19;0.50;99.90
32502;DHT22;18952;52.516;13.460;2023-04-03T06:44:46;0.60;99.90
32502;DHT22;18952;52.516;13.460;2023-04-03T06:47:14;0.70;99.90
32502;DHT22;18952;52.516;13.460;2023-04-03T06:49:42;0.70;99.90
32502;DHT22;18952;52.516;13.460;2023-04-03T06:52:09;0.80;99.90
32502;DHT22;18952;52.516;13.460;2023-04-03T06:54:39;0.80;99.90
32502;DHT22;18952;52.516;13.460;2023-04-03T06:57:07;0.80;99.90
32502;DHT22;18952;52.516;13.460;2023-04-03T06:59:35;0.80;99.90
32502;DHT22;18952;52.516;13.460;2023-04-03T07:02:02;0.90;99.90
32502;DHT22;18952;52.516;13.460;2023-04-03T07:04:30;0.90;99.90
32502;DHT22;18952;52.516;13.460;2023-04-03T07:06:58;1.00;99.90
32502;DHT22;18952;52.516;13.460;2023-04-03T07:09:26;1.10;99.90
32502;DHT22;18952;52.516;13.460;2023-04-03T07:11:54;1.20;99.90
32502;DHT22;18952;52.516;13.460;2023-04-03T07:14:20;1.30;99.90
32502;DHT22;18952;52.516;13.460;2023-04-03T07:16:48;1.30;99.90
32502;DHT22;18952;52.516;13.460;2023-04-03T07:19:15;1.30;99.90
32502;DHT22;18952;52.516;13.460;2023-04-03T07:21:44;1.40;99.90
32502;DHT22;18952;52.516;13.460;2023-04-03T07:24:12;1.40;99.90
32502;DHT22;18952;52.516;13.460;2023-04-03T07:26:43;1.60;99.90
32502;DHT22;18952;52.516;13.460;2023-04-03T07:29:12;1.70;99.90
32502;DHT22;18952;52.516;13.460;2023-04-03T07:31:40;1.80;99.90
32502;DHT22;18952;52.516;13.460;2023-04-03T07:34:07;1.90;99.90
32502;DHT22;18952;52.516;13.460;2023-04-03T07:36:37;2.00;99.90
32502;DHT22;18952;52.516;13.460;2023-04-03T07:39:04;2.00;99.90
32502;DHT22;18952;52.516;13.460;2023-04-03T07:41:32;2.00;99.90
32502;DHT22;18952;52.516;13.460;2023-04-03T07:43:59;2.10;99.90
32502;DHT22;18952;52.516;13.460;2023-04-03T07:46:26;2.10;99.90
32502;DHT22;18952;52.516;13.460;2023-04-03T07:48:52;2.30;99.90
32502;DHT22;18952;52.516;13.460;2023-04-03T07:51:20;2.30;99.90
32502;DHT22;18952;52.516;13.460;2023-04-03T07:53:47;2.30;99.90
32502;DHT22;18952;52.516;13.460;2023-04-03T07:56:14;2.40;99.90
32502;DHT22;18952;52.516;13.460;2023-04-03T07:58:40;2.30;99.90
32502;DHT22;18952;52.516;13.460;2023-04-03T08:01:18;2.40;99.90
32502;DHT22;18952;52.516;13.460;2023-04-03T08:03:45;2.40;99.90
32502;DHT22;18952;52.516;13.460;2023-04-03T08:06:14;2.30;99.90
32502;DHT22;18952;52.516;13.460;2023-04-03T08:08:44;2.50;99.90
32502;DHT22;18952;52.516;13.460;2023-04-03T08:11:12;2.70;99.90
32502;DHT22;18952;52.516;13.460;2023-04-03T08:13:39;2.80;99.90
32502;DHT22;18952;52.516;13.460;2023-04-03T08:16:10;3.00;99.90
32502;DHT22;18952;52.516;13.460;2023-04-03T08:18:37;3.10;99.90
32502;DHT22;18952;52.516;13.460;2023-04-03T08:21:09;3.20;99.90
32502;DHT22;18952;52.516;13.460;2023-04-03T08:23:39;3.30;99.90
32502;DHT22;18952;52.516;13.460;2023-04-03T08:26:12;3.40;99.90
32502;DHT22;18952;52.516;13.460;2023-04-03T08:28:40;3.50;99.90
32502;DHT22;18952;52.516;13.460;2023-04-03T08:31:11;3.40;99.90
32502;DHT22;18952;52.516;13.460;2023-04-03T08:33:40;3.60;99.90
32502;DHT22;18952;52.516;13.460;2023-04-03T08:36:17;3.70;99.90
32502;DHT22;18952;52.516;13.460;2023-04-03T08:38:44;3.70;99.90
32502;DHT22;18952;52.516;13.460;2023-04-03T08:41:36;3.80;99.90
32502;DHT22;18952;52.516;13.460;2023-04-03T08:49:42;3.80;99.90
32502;DHT22;18952;52.516;13.460;2023-04-03T08:54:54;3.80;99.90
32502;DHT22;18952;52.516;13.460;2023-04-03T08:57:42;3.90;99.90
32502;DHT22;18952;52.516;13.460;2023-04-03T09:02:52;4.10;99.90
32502;DHT22;18952;52.516;13.460;2023-04-03T09:08:02;4.10;99.90
32502;DHT22;18952;52.516;13.460;2023-04-03T09:10:33;4.10;99.90
32502;DHT22;18952;52.516;13.460;2023-04-03T09:13:44;4.10;99.90
32502;DHT22;18952;52.516;13.460;2023-04-03T09:16:43;4.10;99.80
32502;DHT22;18952;52.516;13.460;2023-04-03T09:19:46;4.20;98.90
32502;DHT22;18952;52.516;13.460;2023-04-03T09:22:25;4.20;97.20
32502;DHT22;18952;52.516;13.460;2023-04-03T09:25:27;4.30;97.40
32502;DHT22;18952;52.516;13.460;2023-04-03T09:27:56;4.30;96.20
32502;DHT22;18952;52.516;13.460;2023-04-03T09:30:26;4.30;97.00
32502;DHT22;18952;52.516;13.460;2023-04-03T09:32:55;4.40;95.70
32502;DHT22;18952;52.516;13.460;2023-04-03T09:35:28;4.50;95.50
32502;DHT22;18952;52.516;13.460;2023-04-03T09:41:23;4.70;94.10
32502;DHT22;18952;52.516;13.460;2023-04-03T09:43:34;4.80;94.00
32502;DHT22;18952;52.516;13.460;2023-04-03T09:46:37;5.10;93.20
32502;DHT22;18952;52.516;13.460;2023-04-03T09:49:04;5.20;92.10
32502;DHT22;18952;52.516;13.460;2023-04-03T09:51:36;5.30;92.30
32502;DHT22;18952;52.516;13.460;2023-04-03T09:54:37;5.40;92.40
32502;DHT22;18952;52.516;13.460;2023-04-03T09:57:08;5.50;92.10
32502;DHT22;18952;52.516;13.460;2023-04-03T09:59:47;5.40;91.90
32502;DHT22;18952;52.516;13.460;2023-04-03T10:04:58;5.30;90.40
32502;DHT22;18952;52.516;13.460;2023-04-03T10:07:39;5.20;91.70
32502;DHT22;18952;52.516;13.460;2023-04-03T10:12:41;5.40;91.50
32502;DHT22;18952;52.516;13.460;2023-04-03T10:15:15;5.50;91.20
32502;DHT22;18952;52.516;13.460;2023-04-03T10:35:10;5.00;90.00
32502;DHT22;18952;52.516;13.460;2023-04-03T10:40:24;5.20;88.30
32502;DHT22;18952;52.516;13.460;2023-04-03T10:43:04;5.30;88.40
32502;DHT22;18952;52.516;13.460;2023-04-03T10:49:00;5.60;87.70
32502;DHT22;18952;52.516;13.460;2023-04-03T10:54:12;5.90;87.40
32502;DHT22;18952;52.516;13.460;2023-04-03T10:56:53;6.00;87.00
32502;DHT22;18952;52.516;13.460;2023-04-03T11:00:06;6.20;86.00
32502;DHT22;18952;52.516;13.460;2023-04-03T11:02:37;6.30;85.20
32502;DHT22;18952;52.516;13.460;2023-04-03T11:05:15;6.40;85.50
32502;DHT22;18952;52.516;13.460;2023-04-03T11:07:48;6.50;84.80
32502;DHT22;18952;52.516;13.460;2023-04-03T11:10:23;6.40;84.60
32502;DHT22;18952;52.516;13.460;2023-04-03T11:13:19;6.50;84.40
32502;DHT22;18952;52.516;13.460;2023-04-03T11:15:47;6.50;83.40
32502;DHT22;18952;52.516;13.460;2023-04-03T11:18:26;6.50;84.40
32502;DHT22;18952;52.516;13.460;2023-04-03T11:21:39;6.40;83.20
32502;DHT22;18952;52.516;13.460;2023-04-03T11:23:59;6.50;85.00
32502;DHT22;18952;52.516;13.460;2023-04-03T11:26:32;6.50;84.60
32502;DHT22;18952;52.516;13.460;2023-04-03T11:29:07;6.50;83.70
32502;DHT22;18952;52.516;13.460;2023-04-03T11:31:42;6.50;85.10
32502;DHT22;18952;52.516;13.460;2023-04-03T11:37:00;6.70;83.70
32502;DHT22;18952;52.516;13.460;2023-04-03T11:39:34;6.80;84.60
32502;DHT22;18952;52.516;13.460;2023-04-03T11:42:24;6.80;83.10
32502;DHT22;18952;52.516;13.460;2023-04-03T11:47:59;6.40;83.80
32502;DHT22;18952;52.516;13.460;2023-04-03T11:50:44;6.50;85.40
32502;DHT22;18952;52.516;13.460;2023-04-03T11:55:53;6.60;84.70
32502;DHT22;18952;52.516;13.460;2023-04-03T11:58:34;6.70;85.30
32502;DHT22;18952;52.516;13.460;2023-04-03T12:01:48;6.70;85.20
32502;DHT22;18952;52.516;13.460;2023-04-03T12:04:17;6.70;86.30
32502;DHT22;18952;52.516;13.460;2023-04-03T12:09:24;6.60;83.90
32502;DHT22;18952;52.516;13.460;2023-04-03T12:12:21;6.60;84.90
32502;DHT22;18952;52.516;13.460;2023-04-03T12:14:49;6.70;83.20
32502;DHT22;18952;52.516;13.460;2023-04-03T12:17:23;6.60;84.00
32502;DHT22;18952;52.516;13.460;2023-04-03T12:19:52;6.50;82.30
32502;DHT22;18952;52.516;13.460;2023-04-03T12:22:20;6.20;83.10
32502;DHT22;18952;52.516;13.460;2023-04-03T12:24:52;6.10;84.30
32502;DHT22;18952;52.516;13.460;2023-04-03T12:35:28;5.70;82.20
32502;DHT22;18952;52.516;13.460;2023-04-03T12:38:25;5.80;85.20
32502;DHT22;18952;52.516;13.460;2023-04-03T12:44:17;6.30;80.90
32502;DHT22;18952;52.516;13.460;2023-04-03T12:46:51;6.00;82.00
32502;DHT22;18952;52.516;13.460;2023-04-03T12:49:38;5.90;82.20
32502;DHT22;18952;52.516;13.460;2023-04-03T12:55:01;6.10;81.60
32502;DHT22;18952;52.516;13.460;2023-04-03T12:57:27;6.20;81.50
32502;DHT22;18952;52.516;13.460;2023-04-03T12:59:54;6.10;79.50
32502;DHT22;18952;52.516;13.460;2023-04-03T13:02:29;5.90;81.50
32502;DHT22;18952;52.516;13.460;2023-04-03T13:04:59;5.90;80.90
32502;DHT22;18952;52.516;13.460;2023-04-03T13:07:32;6.00;80.70
32502;DHT22;18952;52.516;13.460;2023-04-03T13:15:16;6.20;81.00
32502;DHT22;18952;52.516;13.460;2023-04-03T13:17:44;6.30;81.50
32502;DHT22;18952;52.516;13.460;2023-04-03T13:20:27;6.20;80.70
32502;DHT22;18952;52.516;13.460;2023-04-03T13:23:08;5.70;82.30
32502;DHT22;18952;52.516;13.460;2023-04-03T13:25:41;5.70;82.60
32502;DHT22;18952;52.516;13.460;2023-04-03T13:28:17;5.50;83.40
32502;DHT22;18952;52.516;13.460;2023-04-03T13:31:46;5.50;82.90
32502;DHT22;18952;52.516;13.460;2023-04-03T13:33:58;5.30;82.90
32502;DHT22;18952;52.516;13.460;2023-04-03T13:36:32;5.30;83.80
32502;DHT22;18952;52.516;13.460;2023-04-03T13:39:06;5.40;84.80
32502;DHT22;18952;52.516;13.460;2023-04-03T13:41:39;5.20;84.90
32502;DHT22;18952;52.516;13.460;2023-04-03T13:44:30;5.40;85.20
32502;DHT22;18952;52.516;13.460;2023-04-03T13:49:39;5.50;85.40
32502;DHT22;18952;52.516;13.460;2023-04-03T13:52:26;5.60;84.50
32502;DHT22;18952;52.516;13.460;2023-04-03T13:55:00;5.60;85.00
32502;DHT22;18952;52.516;13.460;2023-04-03T13:57:31;5.60;85.90
32502;DHT22;18952;52.516;13.460;2023-04-03T13:59:58;5.50;85.40
32502;DHT22;18952;52.516;13.460;2023-04-03T14:02:33;5.30;86.50
32502;DHT22;18952;52.516;13.460;2023-04-03T14:05:01;5.10;88.10
32502;DHT22;18952;52.516;13.460;2023-04-03T14:07:29;5.00;87.40
32502;DHT22;18952;52.516;13.460;2023-04-03T14:09:56;5.10;89.00
32502;DHT22;18952;52.516;13.460;2023-04-03T14:12:32;5.40;88.40
32502;DHT22;18952;52.516;13.460;2023-04-03T14:15:02;5.70;87.50
32502;DHT22;18952;52.516;13.460;2023-04-03T14:17:31;5.90;86.40
32502;DHT22;18952;52.516;13.460;2023-04-03T14:19:58;5.50;85.40
32502;DHT22;18952;52.516;13.460;2023-04-03T14:22:29;5.10;86.10
32502;DHT22;18952;52.516;13.460;2023-04-03T14:24:56;4.90;86.60
32502;DHT22;18952;52.516;13.460;2023-04-03T14:27:35;5.10;87.90
32502;DHT22;18952;52.516;13.460;2023-04-03T14:30:04;5.50;87.00
32502;DHT22;18952;52.516;13.460;2023-04-03T14:32:31;6.20;88.20
32502;DHT22;18952;52.516;13.460;2023-04-03T14:34:58;6.90;84.90
32502;DHT22;18952;52.516;13.460;2023-04-03T14:37:28;6.80;82.60
32502;DHT22;18952;52.516;13.460;2023-04-03T14:39:56;6.60;83.80
32502;DHT22;18952;52.516;13.460;2023-04-03T14:42:27;6.60;83.50
32502;DHT22;18952;52.516;13.460;2023-04-03T14:44:54;6.60;84.50
32502;DHT22;18952;52.516;13.460;2023-04-03T14:47:24;6.50;84.10
32502;DHT22;18952;52.516;13.460;2023-04-03T14:50:03;6.10;84.70
32502;DHT22;18952;52.516;13.460;2023-04-03T14:52:34;5.70;86.50
32502;DHT22;18952;52.516;13.460;2023-04-03T14:55:04;5.40;87.70
32502;DHT22;18952;52.516;13.460;2023-04-03T14:57:32;5.30;89.10
32502;DHT22;18952;52.516;13.460;2023-04-03T14:59:58;5.20;89.90
32502;DHT22;18952;52.516;13.460;2023-04-03T15:02:34;4.90;90.60
32502;DHT22;18952;52.516;13.460;2023-04-03T15:05:04;4.90;91.10
32502;DHT22;18952;52.516;13.460;2023-04-03T15:07:34;4.80;91.60
32502;DHT22;18952;52.516;13.460;2023-04-03T15:10:28;4.70;91.80
32502;DHT22;18952;52.516;13.460;2023-04-03T15:13:18;4.60;92.20
32502;DHT22;18952;52.516;13.460;2023-04-03T15:15:56;4.30;92.90
32502;DHT22;18952;52.516;13.460;2023-04-03T15:19:00;4.50;93.40
32502;DHT22;18952;52.516;13.460;2023-04-03T15:21:27;4.50;93.30
32502;DHT22;18952;52.516;13.460;2023-04-03T15:23:54;4.50;93.80
32502;DHT22;18952;52.516;13.460;2023-04-03T15:26:21;4.50;93.90
32502;DHT22;18952;52.516;13.460;2023-04-03T15:28:49;4.70;94.10
32502;DHT22;18952;52.516;13.460;2023-04-03T15:31:19;4.60;94.40
32502;DHT22;18952;52.516;13.460;2023-04-03T15:33:46;4.50;94.70
32502;DHT22;18952;52.516;13.460;2023-04-03T15:36:15;4.60;94.90
32502;DHT22;18952;52.516;13.460;2023-04-03T15:38:57;4.60;95.10
32502;DHT22;18952;52.516;13.460;2023-04-03T15:41:24;4.50;95.30
32502;DHT22;18952;52.516;13.460;2023-04-03T15:43:52;4.30;95.90
32502;DHT22;18952;52.516;13.460;2023-04-03T15:46:22;4.30;95.90
32502;DHT22;18952;52.516;13.460;2023-04-03T15:48:49;4.40;96.00
32502;DHT22;18952;52.516;13.460;2023-04-03T15:51:16;4.40;96.10
32502;DHT22;18952;52.516;13.460;2023-04-03T15:53:49;4.60;96.10
32502;DHT22;18952;52.516;13.460;2023-04-03T15:56:16;4.30;95.90
32502;DHT22;18952;52.516;13.460;2023-04-03T15:58:49;4.30;96.20
32502;DHT22;18952;52.516;13.460;2023-04-03T16:01:23;4.10;96.60
32502;DHT22;18952;52.516;13.460;2023-04-03T16:04:04;4.00;97.50
32502;DHT22;18952;52.516;13.460;2023-04-03T16:06:48;4.00;96.80
32502;DHT22;18952;52.516;13.460;2023-04-03T16:09:27;4.00;97.00
32502;DHT22;18952;52.516;13.460;2023-04-03T16:11:55;4.40;97.00
32502;DHT22;18952;52.516;13.460;2023-04-03T16:14:22;4.90;96.50
32502;DHT22;18952;52.516;13.460;2023-04-03T16:16:50;5.30;95.50
32502;DHT22;18952;52.516;13.460;2023-04-03T16:19:17;5.80;95.10
32502;DHT22;18952;52.516;13.460;2023-04-03T16:22:16;6.20;93.80
32502;DHT22;18952;52.516;13.460;2023-04-03T16:25:23;6.30;92.90
32502;DHT22;18952;52.516;13.460;2023-04-03T16:32:29;6.40;92.60
32502;DHT22;18952;52.516;13.460;2023-04-03T16:38:37;5.90;91.90
32502;DHT22;18952;52.516;13.460;2023-04-03T16:41:11;5.40;92.50
32502;DHT22;18952;52.516;13.460;2023-04-03T16:44:17;5.10;93.40
32502;DHT22;18952;52.516;13.460;2023-04-03T16:47:07;4.90;94.70
32502;DHT22;18952;52.516;13.460;2023-04-03T16:49:44;4.80;95.30
32502;DHT22;18952;52.516;13.460;2023-04-03T16:52:30;4.80;95.40
32502;DHT22;18952;52.516;13.460;2023-04-03T16:55:04;4.70;95.60
32502;DHT22;18952;52.516;13.460;2023-04-03T16:57:46;4.60;95.70
32502;DHT22;18952;52.516;13.460;2023-04-03T17:00:30;4.50;96.20
32502;DHT22;18952;52.516;13.460;2023-04-03T17:03:11;4.50;96.40
32502;DHT22;18952;52.516;13.460;2023-04-03T17:05:47;4.60;96.40
32502;DHT22;18952;52.516;13.460;2023-04-03T17:08:24;4.60;96.60
32502;DHT22;18952;52.516;13.460;2023-04-03T17:11:02;4.50;96.90
32502;DHT22;18952;52.516;13.460;2023-04-03T17:13:36;4.40;97.10
32502;DHT22;18952;52.516;13.460;2023-04-03T17:16:16;4.40;97.40
32502;DHT22;18952;52.516;13.460;2023-04-03T17:18:48;4.40;97.50
32502;DHT22;18952;52.516;13.460;2023-04-03T17:21:21;4.30;98.10
32502;DHT22;18952;52.516;13.460;2023-04-03T17:23:56;4.20;98.70
32502;DHT22;18952;52.516;13.460;2023-04-03T17:26:33;4.20;99.10
32502;DHT22;18952;52.516;13.460;2023-04-03T17:29:19;4.10;99.50
32502;DHT22;18952;52.516;13.460;2023-04-03T17:31:55;4.00;99.70